< < Back
Terminal Aerodrome Forecast


Current Version              Previous Versions:   1  2  3  4  5  6  7  8  9  

Terminal Aerodrome Forecast

145
FTUS44 KMOB 251747
TAFMOB
TAF
KMOB 251747Z 2518/2618 03009KT P6SM VCTS FEW025CB BKN080 BKN250
     FM260300 06003KT P6SM FEW250
     FM261400 07008KT P6SM SKC=



Latest METAR

490
SAUS80 KWBC 251800 RRA
MTRMOB
METAR KMOB 251756Z 08010KT 10SM SCT030 BKN080 BKN250 32/23 A3010 RMK AO2
LTG DSNT S SLP190 CB DSNT SE-SW T03220233 10322 20244
58015


USA.gov is the U.S. government's official web portal to all federal, state and local government web resources and services.